sensor_id;sensor_type;location;lat;lon;timestamp;P1;durP1;ratioP1;P2;durP2;ratioP2
28625;SDS011;18905;42.668;23.364;2023-07-09T00:00:50;7.28;;;3.20;;
28625;SDS011;18905;42.668;23.364;2023-07-09T00:03:16;7.85;;;3.13;;
28625;SDS011;18905;42.668;23.364;2023-07-09T00:05:43;9.05;;;2.85;;
28625;SDS011;18905;42.668;23.364;2023-07-09T00:08:24;14.80;;;3.22;;
28625;SDS011;18905;42.668;23.364;2023-07-09T00:10:55;10.73;;;3.33;;
28625;SDS011;18905;42.668;23.364;2023-07-09T00:13:21;24.77;;;3.03;;
28625;SDS011;18905;42.668;23.364;2023-07-09T00:15:48;7.22;;;3.13;;
28625;SDS011;18905;42.668;23.364;2023-07-09T00:18:14;8.50;;;3.63;;
28625;SDS011;18905;42.668;23.364;2023-07-09T00:20:39;8.75;;;3.30;;
28625;SDS011;18905;42.668;23.364;2023-07-09T00:23:09;7.13;;;3.22;;
28625;SDS011;18905;42.668;23.364;2023-07-09T00:25:38;9.35;;;3.22;;
28625;SDS011;18905;42.668;23.364;2023-07-09T00:28:08;11.52;;;3.22;;
28625;SDS011;18905;42.668;23.364;2023-07-09T00:30:41;4.60;;;3.13;;
28625;SDS011;18905;42.668;23.364;2023-07-09T00:33:10;11.02;;;3.70;;
28625;SDS011;18905;42.668;23.364;2023-07-09T00:35:39;6.32;;;2.95;;
28625;SDS011;18905;42.668;23.364;2023-07-09T00:38:07;9.57;;;3.40;;
28625;SDS011;18905;42.668;23.364;2023-07-09T00:40:38;8.77;;;2.92;;
28625;SDS011;18905;42.668;23.364;2023-07-09T00:43:04;6.07;;;3.33;;
28625;SDS011;18905;42.668;23.364;2023-07-09T00:45:39;5.10;;;3.10;;
28625;SDS011;18905;42.668;23.364;2023-07-09T00:48:05;11.18;;;3.10;;
28625;SDS011;18905;42.668;23.364;2023-07-09T00:50:50;4.97;;;3.40;;
28625;SDS011;18905;42.668;23.364;2023-07-09T00:53:23;5.78;;;2.60;;
28625;SDS011;18905;42.668;23.364;2023-07-09T00:56:02;8.85;;;3.20;;
28625;SDS011;18905;42.668;23.364;2023-07-09T00:58:34;9.07;;;3.53;;
28625;SDS011;18905;42.668;23.364;2023-07-09T01:01:03;8.63;;;3.08;;
28625;SDS011;18905;42.668;23.364;2023-07-09T01:03:38;6.25;;;3.05;;
28625;SDS011;18905;42.668;23.364;2023-07-09T01:06:08;8.10;;;3.50;;
28625;SDS011;18905;42.668;23.364;2023-07-09T01:08:36;7.13;;;3.03;;
28625;SDS011;18905;42.668;23.364;2023-07-09T01:11:14;7.03;;;3.15;;
28625;SDS011;18905;42.668;23.364;2023-07-09T01:13:47;8.43;;;3.05;;
28625;SDS011;18905;42.668;23.364;2023-07-09T01:16:19;6.88;;;3.00;;
28625;SDS011;18905;42.668;23.364;2023-07-09T01:18:51;6.47;;;2.47;;
28625;SDS011;18905;42.668;23.364;2023-07-09T01:21:17;10.27;;;3.00;;
28625;SDS011;18905;42.668;23.364;2023-07-09T01:23:43;8.18;;;2.95;;
28625;SDS011;18905;42.668;23.364;2023-07-09T01:26:13;7.18;;;3.28;;
28625;SDS011;18905;42.668;23.364;2023-07-09T01:28:40;7.22;;;2.83;;
28625;SDS011;18905;42.668;23.364;2023-07-09T01:31:08;10.50;;;2.88;;
28625;SDS011;18905;42.668;23.364;2023-07-09T01:33:34;5.38;;;3.20;;
28625;SDS011;18905;42.668;23.364;2023-07-09T01:35:59;5.68;;;2.90;;
28625;SDS011;18905;42.668;23.364;2023-07-09T01:38:28;8.18;;;3.17;;
28625;SDS011;18905;42.668;23.364;2023-07-09T01:40:57;5.07;;;2.80;;
28625;SDS011;18905;42.668;23.364;2023-07-09T01:43:23;9.55;;;3.42;;
28625;SDS011;18905;42.668;23.364;2023-07-09T01:45:50;6.90;;;3.53;;
28625;SDS011;18905;42.668;23.364;2023-07-09T01:48:16;5.60;;;3.03;;
28625;SDS011;18905;42.668;23.364;2023-07-09T01:50:45;5.60;;;2.95;;
28625;SDS011;18905;42.668;23.364;2023-07-09T01:53:14;6.07;;;3.08;;
28625;SDS011;18905;42.668;23.364;2023-07-09T01:55:41;9.68;;;3.60;;
28625;SDS011;18905;42.668;23.364;2023-07-09T01:58:07;16.00;;;4.65;;
28625;SDS011;18905;42.668;23.364;2023-07-09T02:00:33;6.25;;;4.20;;
28625;SDS011;18905;42.668;23.364;2023-07-09T02:03:02;10.00;;;5.03;;
28625;SDS011;18905;42.668;23.364;2023-07-09T02:05:29;11.55;;;4.68;;
28625;SDS011;18905;42.668;23.364;2023-07-09T02:07:56;12.48;;;4.75;;
28625;SDS011;18905;42.668;23.364;2023-07-09T02:10:22;10.65;;;4.75;;
28625;SDS011;18905;42.668;23.364;2023-07-09T02:12:47;10.05;;;4.65;;
28625;SDS011;18905;42.668;23.364;2023-07-09T02:15:13;9.32;;;5.03;;
28625;SDS011;18905;42.668;23.364;2023-07-09T02:17:39;9.00;;;5.10;;
28625;SDS011;18905;42.668;23.364;2023-07-09T02:20:05;12.15;;;5.20;;
28625;SDS011;18905;42.668;23.364;2023-07-09T02:22:32;18.08;;;5.03;;
28625;SDS011;18905;42.668;23.364;2023-07-09T02:25:02;14.88;;;5.35;;
28625;SDS011;18905;42.668;23.364;2023-07-09T02:27:28;9.65;;;5.05;;
28625;SDS011;18905;42.668;23.364;2023-07-09T02:29:53;8.63;;;5.40;;
28625;SDS011;18905;42.668;23.364;2023-07-09T02:32:23;13.27;;;5.65;;
28625;SDS011;18905;42.668;23.364;2023-07-09T02:34:51;6.72;;;4.75;;
28625;SDS011;18905;42.668;23.364;2023-07-09T02:37:18;8.98;;;5.32;;
28625;SDS011;18905;42.668;23.364;2023-07-09T02:39:45;8.52;;;5.45;;
28625;SDS011;18905;42.668;23.364;2023-07-09T02:42:12;10.60;;;5.30;;
28625;SDS011;18905;42.668;23.364;2023-07-09T02:44:39;8.25;;;5.15;;
28625;SDS011;18905;42.668;23.364;2023-07-09T02:47:06;10.73;;;5.75;;
28625;SDS011;18905;42.668;23.364;2023-07-09T02:49:32;12.48;;;5.47;;
28625;SDS011;18905;42.668;23.364;2023-07-09T02:51:57;13.57;;;6.55;;
28625;SDS011;18905;42.668;23.364;2023-07-09T02:54:23;13.13;;;5.47;;
28625;SDS011;18905;42.668;23.364;2023-07-09T02:56:48;15.70;;;5.95;;
28625;SDS011;18905;42.668;23.364;2023-07-09T02:59:14;12.32;;;5.78;;
28625;SDS011;18905;42.668;23.364;2023-07-09T03:01:39;9.77;;;5.90;;
28625;SDS011;18905;42.668;23.364;2023-07-09T03:04:05;12.45;;;5.80;;
28625;SDS011;18905;42.668;23.364;2023-07-09T03:06:31;12.13;;;5.80;;
28625;SDS011;18905;42.668;23.364;2023-07-09T03:09:00;13.23;;;6.53;;
28625;SDS011;18905;42.668;23.364;2023-07-09T03:11:27;11.80;;;5.90;;
28625;SDS011;18905;42.668;23.364;2023-07-09T03:13:54;7.72;;;5.53;;
28625;SDS011;18905;42.668;23.364;2023-07-09T03:16:20;14.55;;;6.05;;
28625;SDS011;18905;42.668;23.364;2023-07-09T03:18:45;9.18;;;5.70;;
28625;SDS011;18905;42.668;23.364;2023-07-09T03:21:11;9.38;;;5.60;;
28625;SDS011;18905;42.668;23.364;2023-07-09T03:23:36;12.90;;;6.60;;
28625;SDS011;18905;42.668;23.364;2023-07-09T03:26:02;10.23;;;5.97;;
28625;SDS011;18905;42.668;23.364;2023-07-09T03:28:29;9.73;;;5.95;;
28625;SDS011;18905;42.668;23.364;2023-07-09T03:30:56;14.55;;;6.20;;
28625;SDS011;18905;42.668;23.364;2023-07-09T03:33:22;11.77;;;6.43;;
28625;SDS011;18905;42.668;23.364;2023-07-09T03:35:49;9.13;;;5.22;;
28625;SDS011;18905;42.668;23.364;2023-07-09T03:38:15;12.07;;;5.75;;
28625;SDS011;18905;42.668;23.364;2023-07-09T03:40:41;12.40;;;5.63;;
28625;SDS011;18905;42.668;23.364;2023-07-09T03:43:06;12.80;;;5.47;;
28625;SDS011;18905;42.668;23.364;2023-07-09T03:45:33;11.65;;;5.22;;
28625;SDS011;18905;42.668;23.364;2023-07-09T03:48:00;8.18;;;4.97;;
28625;SDS011;18905;42.668;23.364;2023-07-09T03:50:25;12.68;;;6.10;;
28625;SDS011;18905;42.668;23.364;2023-07-09T03:52:50;12.20;;;5.88;;
28625;SDS011;18905;42.668;23.364;2023-07-09T03:55:16;11.55;;;6.15;;
28625;SDS011;18905;42.668;23.364;2023-07-09T03:57:41;12.65;;;5.40;;
28625;SDS011;18905;42.668;23.364;2023-07-09T04:00:07;11.82;;;5.38;;
28625;SDS011;18905;42.668;23.364;2023-07-09T04:02:36;9.02;;;5.68;;
28625;SDS011;18905;42.668;23.364;2023-07-09T04:05:02;13.73;;;5.70;;
28625;SDS011;18905;42.668;23.364;2023-07-09T04:07:28;14.10;;;5.90;;
28625;SDS011;18905;42.668;23.364;2023-07-09T04:09:54;12.05;;;5.60;;
28625;SDS011;18905;42.668;23.364;2023-07-09T04:12:19;13.85;;;6.13;;
28625;SDS011;18905;42.668;23.364;2023-07-09T04:14:45;14.52;;;6.30;;
28625;SDS011;18905;42.668;23.364;2023-07-09T04:17:11;13.07;;;5.60;;
28625;SDS011;18905;42.668;23.364;2023-07-09T04:19:36;12.68;;;6.03;;
28625;SDS011;18905;42.668;23.364;2023-07-09T04:22:02;11.27;;;6.07;;
28625;SDS011;18905;42.668;23.364;2023-07-09T04:24:27;14.27;;;6.20;;
28625;SDS011;18905;42.668;23.364;2023-07-09T04:26:53;13.13;;;6.10;;
28625;SDS011;18905;42.668;23.364;2023-07-09T04:29:21;12.75;;;6.57;;
28625;SDS011;18905;42.668;23.364;2023-07-09T04:31:47;10.45;;;6.88;;
28625;SDS011;18905;42.668;23.364;2023-07-09T04:34:13;17.23;;;6.65;;
28625;SDS011;18905;42.668;23.364;2023-07-09T04:36:38;14.23;;;6.55;;
28625;SDS011;18905;42.668;23.364;2023-07-09T04:39:04;11.73;;;6.13;;
28625;SDS011;18905;42.668;23.364;2023-07-09T04:41:30;11.48;;;6.97;;
28625;SDS011;18905;42.668;23.364;2023-07-09T04:43:55;11.48;;;5.80;;
28625;SDS011;18905;42.668;23.364;2023-07-09T04:46:21;16.98;;;6.43;;
28625;SDS011;18905;42.668;23.364;2023-07-09T04:48:46;12.93;;;6.72;;
28625;SDS011;18905;42.668;23.364;2023-07-09T04:51:11;12.65;;;6.60;;
28625;SDS011;18905;42.668;23.364;2023-07-09T04:53:37;8.57;;;6.68;;
28625;SDS011;18905;42.668;23.364;2023-07-09T04:56:02;10.25;;;6.22;;
28625;SDS011;18905;42.668;23.364;2023-07-09T04:58:28;15.82;;;6.30;;
28625;SDS011;18905;42.668;23.364;2023-07-09T05:00:58;9.30;;;6.15;;
28625;SDS011;18905;42.668;23.364;2023-07-09T05:03:24;8.95;;;6.18;;
28625;SDS011;18905;42.668;23.364;2023-07-09T05:05:49;19.30;;;5.93;;
28625;SDS011;18905;42.668;23.364;2023-07-09T05:08:15;11.70;;;6.13;;
28625;SDS011;18905;42.668;23.364;2023-07-09T05:10:45;14.45;;;5.88;;
28625;SDS011;18905;42.668;23.364;2023-07-09T05:13:15;11.85;;;5.60;;
28625;SDS011;18905;42.668;23.364;2023-07-09T05:15:43;13.48;;;5.70;;
28625;SDS011;18905;42.668;23.364;2023-07-09T05:18:11;9.75;;;5.40;;
28625;SDS011;18905;42.668;23.364;2023-07-09T05:20:37;16.00;;;5.88;;
28625;SDS011;18905;42.668;23.364;2023-07-09T05:23:03;10.38;;;5.18;;
28625;SDS011;18905;42.668;23.364;2023-07-09T05:25:28;13.25;;;5.90;;
28625;SDS011;18905;42.668;23.364;2023-07-09T05:27:54;11.15;;;5.60;;
28625;SDS011;18905;42.668;23.364;2023-07-09T05:30:19;10.82;;;5.03;;
28625;SDS011;18905;42.668;23.364;2023-07-09T05:32:45;10.95;;;5.03;;
28625;SDS011;18905;42.668;23.364;2023-07-09T05:35:11;10.35;;;5.07;;
28625;SDS011;18905;42.668;23.364;2023-07-09T05:37:36;13.50;;;5.20;;
28625;SDS011;18905;42.668;23.364;2023-07-09T05:40:02;10.05;;;5.15;;
28625;SDS011;18905;42.668;23.364;2023-07-09T05:42:30;11.45;;;5.28;;
28625;SDS011;18905;42.668;23.364;2023-07-09T05:44:56;9.65;;;5.28;;
28625;SDS011;18905;42.668;23.364;2023-07-09T05:47:22;7.20;;;3.70;;
28625;SDS011;18905;42.668;23.364;2023-07-09T05:49:48;6.70;;;3.78;;
28625;SDS011;18905;42.668;23.364;2023-07-09T05:52:15;8.45;;;3.53;;
28625;SDS011;18905;42.668;23.364;2023-07-09T05:54:44;11.40;;;3.60;;
28625;SDS011;18905;42.668;23.364;2023-07-09T05:57:10;7.75;;;3.67;;
28625;SDS011;18905;42.668;23.364;2023-07-09T05:59:36;7.90;;;3.72;;
28625;SDS011;18905;42.668;23.364;2023-07-09T06:02:02;8.02;;;3.50;;
28625;SDS011;18905;42.668;23.364;2023-07-09T06:04:28;12.82;;;3.72;;
28625;SDS011;18905;42.668;23.364;2023-07-09T06:06:55;13.68;;;3.97;;
28625;SDS011;18905;42.668;23.364;2023-07-09T06:09:21;9.75;;;3.80;;
28625;SDS011;18905;42.668;23.364;2023-07-09T06:11:46;8.50;;;3.70;;
28625;SDS011;18905;42.668;23.364;2023-07-09T06:14:12;5.50;;;3.65;;
28625;SDS011;18905;42.668;23.364;2023-07-09T06:16:37;6.38;;;3.67;;
28625;SDS011;18905;42.668;23.364;2023-07-09T06:19:03;6.55;;;3.60;;
28625;SDS011;18905;42.668;23.364;2023-07-09T06:21:28;8.50;;;3.72;;
28625;SDS011;18905;42.668;23.364;2023-07-09T06:23:54;9.18;;;4.07;;
28625;SDS011;18905;42.668;23.364;2023-07-09T06:26:19;8.25;;;3.92;;
28625;SDS011;18905;42.668;23.364;2023-07-09T06:28:45;10.40;;;3.70;;
28625;SDS011;18905;42.668;23.364;2023-07-09T06:31:11;8.32;;;5.40;;
28625;SDS011;18905;42.668;23.364;2023-07-09T06:33:36;7.20;;;4.05;;
28625;SDS011;18905;42.668;23.364;2023-07-09T06:36:02;7.10;;;3.10;;
28625;SDS011;18905;42.668;23.364;2023-07-09T06:38:28;8.85;;;3.90;;
28625;SDS011;18905;42.668;23.364;2023-07-09T06:40:54;9.95;;;3.60;;
28625;SDS011;18905;42.668;23.364;2023-07-09T06:43:20;10.30;;;3.30;;
28625;SDS011;18905;42.668;23.364;2023-07-09T06:45:56;7.25;;;3.80;;
28625;SDS011;18905;42.668;23.364;2023-07-09T06:48:23;6.57;;;3.58;;
28625;SDS011;18905;42.668;23.364;2023-07-09T06:50:51;5.72;;;3.47;;
28625;SDS011;18905;42.668;23.364;2023-07-09T06:53:20;8.32;;;3.25;;
28625;SDS011;18905;42.668;23.364;2023-07-09T06:55:46;13.45;;;2.90;;
28625;SDS011;18905;42.668;23.364;2023-07-09T06:58:14;6.95;;;3.45;;
28625;SDS011;18905;42.668;23.364;2023-07-09T07:00:41;10.98;;;6.30;;
28625;SDS011;18905;42.668;23.364;2023-07-09T07:03:06;11.27;;;4.50;;
28625;SDS011;18905;42.668;23.364;2023-07-09T07:05:32;12.75;;;8.02;;
28625;SDS011;18905;42.668;23.364;2023-07-09T07:07:58;6.07;;;4.10;;
28625;SDS011;18905;42.668;23.364;2023-07-09T07:10:24;8.15;;;4.10;;
28625;SDS011;18905;42.668;23.364;2023-07-09T07:12:51;12.90;;;3.70;;
28625;SDS011;18905;42.668;23.364;2023-07-09T07:15:17;4.93;;;3.33;;
28625;SDS011;18905;42.668;23.364;2023-07-09T07:17:43;7.68;;;4.25;;
28625;SDS011;18905;42.668;23.364;2023-07-09T07:20:10;10.80;;;3.40;;
28625;SDS011;18905;42.668;23.364;2023-07-09T07:22:37;14.20;;;7.63;;
28625;SDS011;18905;42.668;23.364;2023-07-09T07:25:03;13.20;;;3.40;;
28625;SDS011;18905;42.668;23.364;2023-07-09T07:27:29;5.32;;;3.20;;
28625;SDS011;18905;42.668;23.364;2023-07-09T07:29:55;6.53;;;3.10;;
28625;SDS011;18905;42.668;23.364;2023-07-09T07:32:20;6.45;;;3.70;;
28625;SDS011;18905;42.668;23.364;2023-07-09T07:34:46;5.85;;;3.65;;
28625;SDS011;18905;42.668;23.364;2023-07-09T07:37:12;9.80;;;3.50;;
28625;SDS011;18905;42.668;23.364;2023-07-09T07:39:38;5.65;;;3.42;;
28625;SDS011;18905;42.668;23.364;2023-07-09T07:42:03;6.35;;;3.03;;
28625;SDS011;18905;42.668;23.364;2023-07-09T07:44:29;11.18;;;3.38;;
28625;SDS011;18905;42.668;23.364;2023-07-09T07:46:54;6.40;;;3.03;;
28625;SDS011;18905;42.668;23.364;2023-07-09T07:49:20;7.45;;;3.42;;
28625;SDS011;18905;42.668;23.364;2023-07-09T07:51:45;3.78;;;3.00;;
28625;SDS011;18905;42.668;23.364;2023-07-09T07:54:11;5.28;;;3.42;;
28625;SDS011;18905;42.668;23.364;2023-07-09T07:56:36;6.78;;;3.38;;
28625;SDS011;18905;42.668;23.364;2023-07-09T07:59:02;8.27;;;3.30;;
28625;SDS011;18905;42.668;23.364;2023-07-09T08:01:28;5.28;;;3.00;;
28625;SDS011;18905;42.668;23.364;2023-07-09T08:03:54;6.18;;;3.15;;
28625;SDS011;18905;42.668;23.364;2023-07-09T08:06:20;5.43;;;2.97;;
28625;SDS011;18905;42.668;23.364;2023-07-09T08:08:46;6.43;;;3.35;;
28625;SDS011;18905;42.668;23.364;2023-07-09T08:11:11;5.60;;;3.33;;
28625;SDS011;18905;42.668;23.364;2023-07-09T08:13:37;4.85;;;3.33;;
28625;SDS011;18905;42.668;23.364;2023-07-09T08:16:03;8.18;;;3.55;;
28625;SDS011;18905;42.668;23.364;2023-07-09T08:18:29;3.70;;;2.85;;
28625;SDS011;18905;42.668;23.364;2023-07-09T08:20:55;6.05;;;3.33;;
28625;SDS011;18905;42.668;23.364;2023-07-09T08:23:20;7.68;;;3.25;;
28625;SDS011;18905;42.668;23.364;2023-07-09T08:25:55;11.45;;;3.60;;
28625;SDS011;18905;42.668;23.364;2023-07-09T08:28:22;6.60;;;3.60;;
28625;SDS011;18905;42.668;23.364;2023-07-09T08:30:51;8.88;;;3.35;;
28625;SDS011;18905;42.668;23.364;2023-07-09T08:33:17;5.85;;;3.20;;
28625;SDS011;18905;42.668;23.364;2023-07-09T08:35:43;6.50;;;3.42;;
28625;SDS011;18905;42.668;23.364;2023-07-09T08:38:09;8.48;;;3.30;;
28625;SDS011;18905;42.668;23.364;2023-07-09T08:40:38;4.43;;;3.28;;
28625;SDS011;18905;42.668;23.364;2023-07-09T08:46:02;10.10;;;4.13;;
28625;SDS011;18905;42.668;23.364;2023-07-09T08:48:43;11.82;;;3.95;;
28625;SDS011;18905;42.668;23.364;2023-07-09T08:51:44;5.57;;;3.80;;
28625;SDS011;18905;42.668;23.364;2023-07-09T08:54:08;11.10;;;4.20;;
28625;SDS011;18905;42.668;23.364;2023-07-09T08:56:40;8.93;;;3.75;;
28625;SDS011;18905;42.668;23.364;2023-07-09T08:59:07;6.00;;;3.60;;
28625;SDS011;18905;42.668;23.364;2023-07-09T09:01:37;6.28;;;3.38;;
28625;SDS011;18905;42.668;23.364;2023-07-09T09:04:08;8.75;;;3.47;;
28625;SDS011;18905;42.668;23.364;2023-07-09T09:06:44;7.85;;;3.92;;
28625;SDS011;18905;42.668;23.364;2023-07-09T09:16:59;7.68;;;3.75;;
28625;SDS011;18905;42.668;23.364;2023-07-09T09:19:38;8.48;;;3.58;;
28625;SDS011;18905;42.668;23.364;2023-07-09T09:22:15;7.20;;;4.20;;
28625;SDS011;18905;42.668;23.364;2023-07-09T09:27:36;5.07;;;3.70;;
28625;SDS011;18905;42.668;23.364;2023-07-09T09:30:03;7.40;;;4.05;;
28625;SDS011;18905;42.668;23.364;2023-07-09T09:32:31;5.88;;;3.45;;
28625;SDS011;18905;42.668;23.364;2023-07-09T09:35:13;6.18;;;3.95;;
28625;SDS011;18905;42.668;23.364;2023-07-09T09:37:43;4.50;;;3.35;;
28625;SDS011;18905;42.668;23.364;2023-07-09T09:40:14;6.90;;;3.63;;
28625;SDS011;18905;42.668;23.364;2023-07-09T09:42:43;6.13;;;3.88;;
28625;SDS011;18905;42.668;23.364;2023-07-09T09:45:12;6.53;;;3.35;;
28625;SDS011;18905;42.668;23.364;2023-07-09T09:47:41;5.47;;;3.70;;
28625;SDS011;18905;42.668;23.364;2023-07-09T09:50:09;7.32;;;4.40;;
28625;SDS011;18905;42.668;23.364;2023-07-09T09:52:38;5.50;;;3.83;;
28625;SDS011;18905;42.668;23.364;2023-07-09T09:55:20;9.32;;;3.83;;
28625;SDS011;18905;42.668;23.364;2023-07-09T09:57:50;9.57;;;4.10;;
28625;SDS011;18905;42.668;23.364;2023-07-09T10:00:17;6.70;;;3.70;;
28625;SDS011;18905;42.668;23.364;2023-07-09T10:02:44;7.07;;;3.88;;
28625;SDS011;18905;42.668;23.364;2023-07-09T10:05:13;10.23;;;4.10;;
28625;SDS011;18905;42.668;23.364;2023-07-09T10:07:43;7.88;;;3.45;;
28625;SDS011;18905;42.668;23.364;2023-07-09T10:10:13;7.97;;;3.70;;
28625;SDS011;18905;42.668;23.364;2023-07-09T10:23:52;5.13;;;3.88;;
28625;SDS011;18905;42.668;23.364;2023-07-09T10:26:32;6.45;;;4.20;;
28625;SDS011;18905;42.668;23.364;2023-07-09T10:35:07;6.40;;;3.72;;
28625;SDS011;18905;42.668;23.364;2023-07-09T10:40:21;6.82;;;4.22;;
28625;SDS011;18905;42.668;23.364;2023-07-09T10:43:44;5.32;;;3.45;;
28625;SDS011;18905;42.668;23.364;2023-07-09T10:46:05;5.57;;;3.88;;
28625;SDS011;18905;42.668;23.364;2023-07-09T10:48:38;5.60;;;3.42;;
28625;SDS011;18905;42.668;23.364;2023-07-09T10:51:16;5.13;;;3.70;;
28625;SDS011;18905;42.668;23.364;2023-07-09T10:54:05;5.88;;;3.28;;
28625;SDS011;18905;42.668;23.364;2023-07-09T10:56:40;8.43;;;3.50;;
28625;SDS011;18905;42.668;23.364;2023-07-09T11:01:48;5.35;;;3.88;;
28625;SDS011;18905;42.668;23.364;2023-07-09T11:06:49;6.57;;;3.40;;
28625;SDS011;18905;42.668;23.364;2023-07-09T11:09:24;5.47;;;3.10;;
28625;SDS011;18905;42.668;23.364;2023-07-09T11:11:55;10.15;;;3.40;;
28625;SDS011;18905;42.668;23.364;2023-07-09T11:14:28;4.55;;;3.50;;
28625;SDS011;18905;42.668;23.364;2023-07-09T11:17:00;4.57;;;3.42;;
28625;SDS011;18905;42.668;23.364;2023-07-09T11:19:26;5.65;;;3.30;;
28625;SDS011;18905;42.668;23.364;2023-07-09T11:24:32;6.97;;;3.80;;
28625;SDS011;18905;42.668;23.364;2023-07-09T11:27:00;8.18;;;3.50;;
28625;SDS011;18905;42.668;23.364;2023-07-09T11:29:26;6.35;;;3.50;;
28625;SDS011;18905;42.668;23.364;2023-07-09T11:31:53;4.82;;;3.50;;
28625;SDS011;18905;42.668;23.364;2023-07-09T11:34:19;4.97;;;3.42;;
28625;SDS011;18905;42.668;23.364;2023-07-09T11:39:21;4.32;;;3.13;;
28625;SDS011;18905;42.668;23.364;2023-07-09T11:41:51;4.75;;;3.20;;
28625;SDS011;18905;42.668;23.364;2023-07-09T11:44:20;4.30;;;3.10;;
28625;SDS011;18905;42.668;23.364;2023-07-09T11:46:58;5.35;;;3.25;;
28625;SDS011;18905;42.668;23.364;2023-07-09T11:49:27;6.85;;;3.08;;
28625;SDS011;18905;42.668;23.364;2023-07-09T11:52:04;10.00;;;3.63;;
28625;SDS011;18905;42.668;23.364;2023-07-09T11:54:34;4.90;;;3.03;;
28625;SDS011;18905;42.668;23.364;2023-07-09T11:57:01;5.55;;;2.92;;
28625;SDS011;18905;42.668;23.364;2023-07-09T11:59:28;4.55;;;3.00;;
28625;SDS011;18905;42.668;23.364;2023-07-09T12:01:54;7.93;;;3.17;;
28625;SDS011;18905;42.668;23.364;2023-07-09T12:04:21;5.93;;;3.05;;
28625;SDS011;18905;42.668;23.364;2023-07-09T12:06:51;6.07;;;3.35;;
28625;SDS011;18905;42.668;23.364;2023-07-09T12:09:22;9.77;;;3.30;;
28625;SDS011;18905;42.668;23.364;2023-07-09T12:11:48;5.95;;;3.22;;
28625;SDS011;18905;42.668;23.364;2023-07-09T12:14:16;6.03;;;3.20;;
28625;SDS011;18905;42.668;23.364;2023-07-09T12:16:44;6.30;;;2.70;;
28625;SDS011;18905;42.668;23.364;2023-07-09T12:19:16;6.28;;;3.55;;
28625;SDS011;18905;42.668;23.364;2023-07-09T12:21:44;3.88;;;3.00;;
28625;SDS011;18905;42.668;23.364;2023-07-09T12:24:22;5.90;;;3.20;;
28625;SDS011;18905;42.668;23.364;2023-07-09T12:26:49;4.35;;;3.10;;
28625;SDS011;18905;42.668;23.364;2023-07-09T12:29:17;6.43;;;3.25;;
28625;SDS011;18905;42.668;23.364;2023-07-09T12:31:42;6.75;;;3.72;;
28625;SDS011;18905;42.668;23.364;2023-07-09T12:34:14;4.50;;;3.10;;
28625;SDS011;18905;42.668;23.364;2023-07-09T12:36:41;6.40;;;3.17;;
28625;SDS011;18905;42.668;23.364;2023-07-09T12:39:10;6.82;;;3.00;;
28625;SDS011;18905;42.668;23.364;2023-07-09T12:41:38;8.80;;;3.25;;
28625;SDS011;18905;42.668;23.364;2023-07-09T12:44:05;6.55;;;3.25;;
28625;SDS011;18905;42.668;23.364;2023-07-09T12:46:39;5.25;;;3.17;;
28625;SDS011;18905;42.668;23.364;2023-07-09T12:49:05;6.95;;;3.42;;
28625;SDS011;18905;42.668;23.364;2023-07-09T12:51:31;7.80;;;3.10;;
28625;SDS011;18905;42.668;23.364;2023-07-09T12:54:13;5.70;;;2.97;;
28625;SDS011;18905;42.668;23.364;2023-07-09T12:56:40;8.02;;;2.78;;
28625;SDS011;18905;42.668;23.364;2023-07-09T12:59:14;5.47;;;3.08;;
28625;SDS011;18905;42.668;23.364;2023-07-09T13:01:46;4.80;;;2.97;;
28625;SDS011;18905;42.668;23.364;2023-07-09T13:04:13;5.38;;;2.72;;
28625;SDS011;18905;42.668;23.364;2023-07-09T13:06:39;4.35;;;2.97;;
28625;SDS011;18905;42.668;23.364;2023-07-09T13:09:20;5.38;;;3.10;;
28625;SDS011;18905;42.668;23.364;2023-07-09T13:11:46;4.32;;;3.35;;
28625;SDS011;18905;42.668;23.364;2023-07-09T13:14:19;4.25;;;3.10;;
28625;SDS011;18905;42.668;23.364;2023-07-09T13:16:47;4.22;;;2.65;;
28625;SDS011;18905;42.668;23.364;2023-07-09T13:19:13;5.22;;;3.17;;
28625;SDS011;18905;42.668;23.364;2023-07-09T13:21:39;3.85;;;2.97;;
28625;SDS011;18905;42.668;23.364;2023-07-09T13:24:24;3.20;;;2.63;;
28625;SDS011;18905;42.668;23.364;2023-07-09T13:26:51;5.03;;;2.70;;
28625;SDS011;18905;42.668;23.364;2023-07-09T13:29:17;4.20;;;2.90;;
28625;SDS011;18905;42.668;23.364;2023-07-09T13:31:44;9.02;;;3.10;;
28625;SDS011;18905;42.668;23.364;2023-07-09T13:34:23;6.82;;;3.10;;
28625;SDS011;18905;42.668;23.364;2023-07-09T13:36:50;4.25;;;2.67;;
28625;SDS011;18905;42.668;23.364;2023-07-09T13:39:18;6.32;;;2.80;;
28625;SDS011;18905;42.668;23.364;2023-07-09T13:41:45;7.18;;;3.08;;
28625;SDS011;18905;42.668;23.364;2023-07-09T13:44:13;6.05;;;3.22;;
28625;SDS011;18905;42.668;23.364;2023-07-09T13:46:40;5.60;;;3.00;;
28625;SDS011;18905;42.668;23.364;2023-07-09T13:49:12;4.30;;;3.10;;
28625;SDS011;18905;42.668;23.364;2023-07-09T13:51:40;4.25;;;2.92;;
28625;SDS011;18905;42.668;23.364;2023-07-09T13:56:48;6.32;;;3.00;;
28625;SDS011;18905;42.668;23.364;2023-07-09T13:59:15;5.55;;;3.03;;
28625;SDS011;18905;42.668;23.364;2023-07-09T14:01:47;5.57;;;3.42;;
28625;SDS011;18905;42.668;23.364;2023-07-09T14:04:15;5.25;;;3.15;;
28625;SDS011;18905;42.668;23.364;2023-07-09T14:06:42;9.73;;;3.30;;
28625;SDS011;18905;42.668;23.364;2023-07-09T14:09:10;7.15;;;2.95;;
28625;SDS011;18905;42.668;23.364;2023-07-09T14:11:41;5.13;;;2.80;;
28625;SDS011;18905;42.668;23.364;2023-07-09T14:16:44;5.65;;;3.55;;
28625;SDS011;18905;42.668;23.364;2023-07-09T14:19:16;6.43;;;3.28;;
28625;SDS011;18905;42.668;23.364;2023-07-09T14:21:46;6.43;;;3.17;;
28625;SDS011;18905;42.668;23.364;2023-07-09T14:24:22;6.47;;;3.03;;
28625;SDS011;18905;42.668;23.364;2023-07-09T14:26:50;6.03;;;3.00;;
28625;SDS011;18905;42.668;23.364;2023-07-09T14:29:17;5.55;;;3.08;;
28625;SDS011;18905;42.668;23.364;2023-07-09T14:31:44;7.47;;;3.78;;
28625;SDS011;18905;42.668;23.364;2023-07-09T14:36:42;7.03;;;3.40;;
28625;SDS011;18905;42.668;23.364;2023-07-09T14:39:09;7.32;;;3.47;;
28625;SDS011;18905;42.668;23.364;2023-07-09T14:41:35;7.07;;;3.38;;
28625;SDS011;18905;42.668;23.364;2023-07-09T14:44:01;6.85;;;3.42;;
28625;SDS011;18905;42.668;23.364;2023-07-09T14:46:27;8.48;;;3.72;;
28625;SDS011;18905;42.668;23.364;2023-07-09T14:48:52;5.88;;;3.38;;
28625;SDS011;18905;42.668;23.364;2023-07-09T14:51:17;3.75;;;2.60;;
28625;SDS011;18905;42.668;23.364;2023-07-09T14:53:43;7.25;;;3.17;;
28625;SDS011;18905;42.668;23.364;2023-07-09T14:56:09;9.82;;;2.90;;
28625;SDS011;18905;42.668;23.364;2023-07-09T14:58:37;4.70;;;3.03;;
28625;SDS011;18905;42.668;23.364;2023-07-09T15:01:03;6.40;;;3.30;;
28625;SDS011;18905;42.668;23.364;2023-07-09T15:03:29;5.40;;;2.88;;
28625;SDS011;18905;42.668;23.364;2023-07-09T15:05:55;4.80;;;2.95;;
28625;SDS011;18905;42.668;23.364;2023-07-09T15:08:21;8.45;;;3.58;;
28625;SDS011;18905;42.668;23.364;2023-07-09T15:10:49;4.20;;;2.97;;
28625;SDS011;18905;42.668;23.364;2023-07-09T15:15:41;8.10;;;3.08;;
28625;SDS011;18905;42.668;23.364;2023-07-09T15:18:10;4.55;;;2.70;;
28625;SDS011;18905;42.668;23.364;2023-07-09T15:20:37;5.50;;;3.00;;
28625;SDS011;18905;42.668;23.364;2023-07-09T15:23:03;7.80;;;3.10;;
28625;SDS011;18905;42.668;23.364;2023-07-09T15:25:29;5.38;;;2.65;;
28625;SDS011;18905;42.668;23.364;2023-07-09T15:27:58;6.03;;;3.58;;
28625;SDS011;18905;42.668;23.364;2023-07-09T15:30:25;4.97;;;3.58;;